createdAt,value
2019-02-20T00:04:04.008Z,12.87
2019-02-20T00:06:33.632Z,12.80
2019-02-20T00:09:03.256Z,13.23
2019-02-20T00:11:32.821Z,13.90
2019-02-20T00:14:02.160Z,12.57
2019-02-20T00:16:31.746Z,12.73
2019-02-20T00:19:01.069Z,12.87
2019-02-20T00:21:30.425Z,13.17
2019-02-20T00:23:59.800Z,13.07
2019-02-20T00:26:29.185Z,13.50
2019-02-20T00:28:58.511Z,13.60
2019-02-20T00:31:30.579Z,12.57
2019-02-20T00:33:59.925Z,13.07
2019-02-20T00:36:29.535Z,13.07
2019-02-20T00:38:59.139Z,13.70
2019-02-20T00:41:30.213Z,14.13
2019-02-20T00:44:03.886Z,13.10
2019-02-20T00:46:37.841Z,14.00
2019-02-20T00:49:08.898Z,14.10
2019-02-20T00:51:40.155Z,13.73
2019-02-20T00:54:09.563Z,13.37
2019-02-20T00:56:38.886Z,14.00
2019-02-20T00:59:08.481Z,13.73
2019-02-20T01:01:37.806Z,13.33
2019-02-20T01:04:07.467Z,14.37
2019-02-20T01:06:37.181Z,13.50
2019-02-20T01:09:07.191Z,13.90
2019-02-20T01:11:36.515Z,14.33
2019-02-20T01:14:05.846Z,14.47
2019-02-20T01:16:35.170Z,15.00
2019-02-20T01:19:04.798Z,13.77
2019-02-20T01:21:34.134Z,14.67
2019-02-20T01:24:03.450Z,14.07
2019-02-20T01:26:33.119Z,14.60
2019-02-20T01:29:02.754Z,12.53
2019-02-20T01:31:32.441Z,14.53
2019-02-20T01:34:02.109Z,15.07
2019-02-20T01:36:31.724Z,14.07
2019-02-20T01:39:01.306Z,15.43
2019-02-20T01:41:30.939Z,14.90
2019-02-20T01:44:00.513Z,13.70
2019-02-20T01:46:30.129Z,14.77
2019-02-20T01:48:59.743Z,15.00
2019-02-20T01:51:30.989Z,14.23
2019-02-20T01:54:00.593Z,14.63
2019-02-20T01:56:30.222Z,15.37
2019-02-20T01:58:59.826Z,15.10
2019-02-20T02:01:32.151Z,15.60
2019-02-20T02:04:01.491Z,15.07
2019-02-20T02:06:30.803Z,15.03
2019-02-20T02:09:00.154Z,15.93
2019-02-20T02:11:29.752Z,15.10
2019-02-20T02:13:59.047Z,15.20
2019-02-20T02:16:28.399Z,16.00
2019-02-20T02:18:58.019Z,16.30
2019-02-20T02:21:29.129Z,16.80
2019-02-20T02:23:58.755Z,16.87
2019-02-20T02:26:28.368Z,17.17
2019-02-20T02:28:57.714Z,17.63
2019-02-20T02:31:27.389Z,16.50
2019-02-20T02:33:56.999Z,17.10
2019-02-20T02:36:26.325Z,16.87
2019-02-20T02:38:55.653Z,16.40
2019-02-20T02:41:24.973Z,15.47
2019-02-20T02:43:54.305Z,16.40
2019-02-20T02:46:23.890Z,15.67
2019-02-20T02:48:53.487Z,14.93
2019-02-20T02:51:22.816Z,14.73
2019-02-20T02:53:52.144Z,15.43
2019-02-20T02:56:21.463Z,16.67
2019-02-20T02:58:50.780Z,15.77
2019-02-20T03:01:20.206Z,15.30
2019-02-20T03:03:49.804Z,15.50
2019-02-20T03:06:19.139Z,16.33
2019-02-20T03:08:48.443Z,15.53
2019-02-20T03:11:18.102Z,16.00
2019-02-20T03:13:47.709Z,15.77
2019-02-20T03:16:17.281Z,15.83
2019-02-20T03:18:46.674Z,16.50
2019-02-20T03:21:15.986Z,15.67
2019-02-20T03:23:45.659Z,16.50
2019-02-20T03:26:14.954Z,15.93
2019-02-20T03:28:44.546Z,15.47
2019-02-20T03:31:13.888Z,15.73
2019-02-20T03:33:43.237Z,16.27
2019-02-20T03:36:12.830Z,15.20
2019-02-20T03:38:42.147Z,15.20
2019-02-20T03:41:11.493Z,15.87
2019-02-20T03:43:41.090Z,15.67
2019-02-20T03:46:10.649Z,15.03
2019-02-20T03:48:40.039Z,16.20
2019-02-20T03:51:09.367Z,15.13
2019-02-20T03:53:38.718Z,15.83
2019-02-20T03:56:08.051Z,15.13
2019-02-20T03:58:37.657Z,15.30
2019-02-20T04:01:07.270Z,14.70
2019-02-20T04:03:36.608Z,15.33
2019-02-20T04:06:05.927Z,16.13
2019-02-20T04:08:35.293Z,15.27
2019-02-20T04:11:04.893Z,14.73
2019-02-20T04:13:34.209Z,15.40
2019-02-20T04:16:03.790Z,15.17
2019-02-20T04:18:33.093Z,15.00
2019-02-20T04:21:02.776Z,14.43
2019-02-20T04:23:32.336Z,14.57
2019-02-20T04:26:01.964Z,15.57
2019-02-20T04:28:31.362Z,15.00
2019-02-20T04:31:00.687Z,15.77
2019-02-20T04:33:30.385Z,15.20
2019-02-20T04:35:59.704Z,15.07
2019-02-20T04:38:29.061Z,15.60
2019-02-20T04:40:58.404Z,15.30
2019-02-20T04:43:27.986Z,15.73
2019-02-20T04:45:57.315Z,14.13
2019-02-20T04:48:26.646Z,15.33
2019-02-20T04:50:55.990Z,15.27
2019-02-20T04:53:25.298Z,15.33
2019-02-20T04:55:54.854Z,15.70
2019-02-20T04:58:24.474Z,15.50
2019-02-20T05:00:54.074Z,14.67
2019-02-20T05:03:23.403Z,15.87
2019-02-20T05:05:52.988Z,14.97
2019-02-20T05:08:22.375Z,15.07
2019-02-20T05:10:51.967Z,16.63
2019-02-20T05:13:21.278Z,16.30
2019-02-20T05:15:50.938Z,15.93
2019-02-20T05:18:20.255Z,16.57
2019-02-20T05:20:49.652Z,15.60
2019-02-20T05:23:19.228Z,15.77
2019-02-20T05:25:48.826Z,16.40
2019-02-20T05:28:18.151Z,16.40
2019-02-20T05:30:47.507Z,16.50
2019-02-20T05:33:17.081Z,16.03
2019-02-20T05:35:46.442Z,15.90
2019-02-20T05:38:15.748Z,16.33
2019-02-20T05:40:45.076Z,15.90
2019-02-20T05:43:14.404Z,17.00
2019-02-20T05:45:44.011Z,17.33
2019-02-20T05:48:13.340Z,15.97
2019-02-20T05:50:42.997Z,16.17
2019-02-20T05:53:12.343Z,15.40
2019-02-20T05:55:41.677Z,16.20
2019-02-20T05:58:11.788Z,15.83
2019-02-20T06:00:41.142Z,15.90
2019-02-20T06:03:10.777Z,16.77
2019-02-20T06:05:40.068Z,16.73
2019-02-20T06:08:09.669Z,17.10
2019-02-20T06:10:39.012Z,15.60
2019-02-20T06:13:08.598Z,15.93
2019-02-20T06:15:37.886Z,17.50
2019-02-20T06:18:07.231Z,16.80
2019-02-20T06:20:36.813Z,16.10
2019-02-20T06:23:06.538Z,16.60
2019-02-20T06:25:35.927Z,15.87
2019-02-20T06:28:05.260Z,16.00
2019-02-20T06:30:52.646Z,16.00
2019-02-20T06:33:23.024Z,16.77
2019-02-20T06:35:52.636Z,16.40
2019-02-20T06:38:21.961Z,15.07
2019-02-20T06:40:51.617Z,15.80
2019-02-20T06:43:21.272Z,15.80
2019-02-20T06:45:50.585Z,16.53
2019-02-20T06:48:19.931Z,16.30
2019-02-20T06:50:49.521Z,16.30
2019-02-20T06:53:19.118Z,15.63
2019-02-20T06:55:48.713Z,15.57
2019-02-20T06:58:18.358Z,15.40
2019-02-20T07:00:47.992Z,15.67
2019-02-20T07:03:17.316Z,16.00
2019-02-20T07:05:46.720Z,16.77
2019-02-20T07:08:40.136Z,14.93
2019-02-20T07:11:38.316Z,15.13
2019-02-20T07:14:27.330Z,15.20
2019-02-20T07:17:29.891Z,16.60
2019-02-20T07:20:36.806Z,15.33
2019-02-20T07:23:42.322Z,15.63
2019-02-20T07:26:34.534Z,15.63
2019-02-20T07:29:20.579Z,14.73
2019-02-20T07:31:50.212Z,15.10
2019-02-20T07:34:19.870Z,14.83
2019-02-20T07:36:49.273Z,14.93
2019-02-20T07:39:18.857Z,15.67
2019-02-20T07:41:48.176Z,13.60
2019-02-20T07:44:17.536Z,15.07
2019-02-20T07:46:46.854Z,15.43
2019-02-20T07:49:16.623Z,15.90
2019-02-20T07:51:46.215Z,13.90
2019-02-20T07:54:15.552Z,15.33
2019-02-20T07:56:44.905Z,14.93
2019-02-20T07:59:14.239Z,15.30
2019-02-20T08:01:43.576Z,14.63
2019-02-20T08:04:16.357Z,15.40
2019-02-20T08:06:45.966Z,14.83
2019-02-20T08:09:15.543Z,13.43
2019-02-20T08:11:45.157Z,14.37
2019-02-20T08:14:14.483Z,14.60
2019-02-20T08:16:51.996Z,14.63
2019-02-20T08:19:15.100Z,14.20
2019-02-20T08:21:44.704Z,14.60
2019-02-20T08:24:14.014Z,14.37
2019-02-20T08:26:43.580Z,14.50
2019-02-20T08:29:12.906Z,13.90
2019-02-20T08:31:42.217Z,14.90
2019-02-20T08:34:11.549Z,15.00
2019-02-20T08:36:41.158Z,15.40
2019-02-20T08:39:10.755Z,14.53
2019-02-20T08:41:40.412Z,14.43
2019-02-20T08:44:09.983Z,14.03
2019-02-20T08:46:39.324Z,14.90
2019-02-20T08:49:08.909Z,14.20
2019-02-20T08:51:38.501Z,14.33
2019-02-20T08:54:08.114Z,14.30
2019-02-20T08:56:37.686Z,15.60
2019-02-20T08:59:07.327Z,14.87
2019-02-20T09:01:36.946Z,14.67
2019-02-20T09:04:06.247Z,15.13
2019-02-20T09:06:35.577Z,14.97
2019-02-20T09:09:05.530Z,14.00
2019-02-20T09:11:35.137Z,14.17
2019-02-20T09:14:04.445Z,13.40
2019-02-20T09:16:33.772Z,13.73
2019-02-20T09:19:03.083Z,13.27
2019-02-20T09:21:32.407Z,13.80
2019-02-20T09:24:01.720Z,13.33
2019-02-20T09:26:31.032Z,13.67
2019-02-20T09:29:00.629Z,14.40
2019-02-20T09:31:30.948Z,14.17
2019-02-20T09:34:00.261Z,13.50
2019-02-20T09:36:29.592Z,13.77
2019-02-20T09:39:02.496Z,14.03
2019-02-20T09:41:32.071Z,14.20
2019-02-20T09:44:01.387Z,12.63
2019-02-20T09:46:31.042Z,15.23
2019-02-20T09:49:00.650Z,14.50
2019-02-20T09:51:30.825Z,14.97
2019-02-20T09:54:00.155Z,14.43
2019-02-20T09:56:29.480Z,14.70
2019-02-20T09:58:58.834Z,15.80
2019-02-20T10:01:28.450Z,15.30
2019-02-20T10:03:59.507Z,15.47
2019-02-20T10:06:29.245Z,14.93
2019-02-20T10:08:58.955Z,16.43
2019-02-20T10:11:28.387Z,15.40
2019-02-20T10:14:00.823Z,16.27
2019-02-20T10:16:30.248Z,16.53
2019-02-20T10:18:59.831Z,17.23
2019-02-20T10:21:29.169Z,15.97
2019-02-20T10:23:58.743Z,14.50
2019-02-20T10:26:28.064Z,15.17
2019-02-20T10:28:57.401Z,14.63
2019-02-20T10:31:26.957Z,16.07
2019-02-20T10:33:56.559Z,16.77
2019-02-20T10:36:25.878Z,16.13
2019-02-20T10:38:55.484Z,16.43
2019-02-20T10:41:24.813Z,15.63
2019-02-20T10:43:54.150Z,15.90
2019-02-20T10:46:23.498Z,16.30
2019-02-20T10:48:52.854Z,16.77
2019-02-20T10:51:22.254Z,17.80
2019-02-20T10:53:51.855Z,15.57
2019-02-20T10:56:21.450Z,16.27
2019-02-20T10:58:51.050Z,16.80
2019-02-20T11:01:20.523Z,16.63
2019-02-20T11:03:50.837Z,14.93
2019-02-20T11:06:20.772Z,14.67
2019-02-20T11:08:53.520Z,15.57
2019-02-20T11:11:23.102Z,14.73
2019-02-20T11:13:54.814Z,14.93
2019-02-20T11:16:24.641Z,15.80
2019-02-20T11:18:54.396Z,16.47
2019-02-20T11:21:24.163Z,14.83
2019-02-20T11:23:53.791Z,14.67
2019-02-20T11:26:23.729Z,14.33
2019-02-20T11:28:53.614Z,12.63
2019-02-20T11:31:23.487Z,13.40
2019-02-20T11:33:52.917Z,14.23
2019-02-20T11:36:22.395Z,13.80
2019-02-20T11:38:52.582Z,13.43
2019-02-20T11:41:22.391Z,13.47
2019-02-20T11:43:52.096Z,11.97
2019-02-20T11:46:21.884Z,12.07
2019-02-20T11:48:51.507Z,12.67
2019-02-20T11:51:21.191Z,13.10
2019-02-20T11:53:51.121Z,12.40
2019-02-20T11:56:26.389Z,11.30
2019-02-20T11:58:52.260Z,11.60
2019-02-20T12:01:21.847Z,12.50
2019-02-20T12:04:00.160Z,12.30
2019-02-20T12:06:29.561Z,12.03
2019-02-20T12:17:03.934Z,10.43
2019-02-20T12:19:33.593Z,10.70
2019-02-20T12:22:02.918Z,11.30
2019-02-20T12:24:32.909Z,11.50
2019-02-20T12:27:02.263Z,9.27
2019-02-20T12:29:31.905Z,8.83
2019-02-20T12:32:01.514Z,8.33
2019-02-20T12:34:30.843Z,9.50
2019-02-20T12:37:00.459Z,9.13
2019-02-20T12:39:29.797Z,9.47
2019-02-20T12:41:59.117Z,7.77
2019-02-20T12:44:28.741Z,7.60
2019-02-20T12:46:58.063Z,8.13
2019-02-20T12:49:27.411Z,7.40
2019-02-20T12:51:56.858Z,7.73
2019-02-20T12:54:26.501Z,7.47
2019-02-20T12:56:55.929Z,7.30
2019-02-20T12:59:25.253Z,6.97
2019-02-20T13:01:54.821Z,7.10
2019-02-20T13:04:24.679Z,6.67
2019-02-20T13:06:59.367Z,6.37
2019-02-20T13:09:25.582Z,6.33
2019-02-20T13:11:55.204Z,6.03
2019-02-20T13:14:24.782Z,6.30
2019-02-20T13:16:54.419Z,6.50
2019-02-20T13:19:23.735Z,6.30
2019-02-20T13:21:53.329Z,5.87
2019-02-20T13:24:23.000Z,5.70
2019-02-20T13:26:53.128Z,5.70
2019-02-20T13:29:22.732Z,5.27
2019-02-20T13:31:52.140Z,5.83
2019-02-20T13:34:21.763Z,5.67
2019-02-20T13:36:51.341Z,6.30
2019-02-20T13:39:21.016Z,6.30
2019-02-20T13:41:50.364Z,7.00
2019-02-20T13:44:19.756Z,6.30
2019-02-20T13:46:49.435Z,6.33
2019-02-20T13:49:19.170Z,6.53
2019-02-20T13:51:48.500Z,6.50
2019-02-20T13:54:18.122Z,7.23
2019-02-20T13:56:47.753Z,6.90
2019-02-20T13:59:17.188Z,6.30
2019-02-20T14:01:46.805Z,6.70
2019-02-20T14:04:16.676Z,7.23
2019-02-20T14:06:46.270Z,6.43
2019-02-20T14:09:15.902Z,6.83
2019-02-20T14:11:45.329Z,6.47
2019-02-20T14:14:16.608Z,6.53
2019-02-20T14:16:46.135Z,7.13
2019-02-20T14:19:15.727Z,7.27
2019-02-20T14:21:45.319Z,7.13
2019-02-20T14:24:14.645Z,7.50
2019-02-20T14:26:44.222Z,7.87
2019-02-20T14:29:13.795Z,7.07
2019-02-20T14:31:43.398Z,7.97
2019-02-20T14:34:13.256Z,7.87
2019-02-20T14:36:42.920Z,7.63
2019-02-20T14:39:12.280Z,7.83
2019-02-20T14:41:41.866Z,7.80
2019-02-20T14:44:11.206Z,7.20
2019-02-20T14:46:40.835Z,8.13
2019-02-20T14:49:10.715Z,7.97
2019-02-20T14:51:40.062Z,7.87
2019-02-20T14:54:09.388Z,8.30
2019-02-20T14:56:39.029Z,27.40
2019-02-20T14:59:08.368Z,42.73
2019-02-20T15:01:38.009Z,29.13
2019-02-20T15:04:07.605Z,7.50
2019-02-20T15:06:36.947Z,7.50
2019-02-20T15:09:06.543Z,7.97
2019-02-20T15:11:36.378Z,8.03
2019-02-20T15:14:05.985Z,8.30
2019-02-20T15:16:35.564Z,7.80
2019-02-20T15:19:05.262Z,8.60
2019-02-20T15:21:34.586Z,8.80
2019-02-20T15:24:04.323Z,8.33
2019-02-20T15:26:33.679Z,8.40
2019-02-20T15:29:03.287Z,8.00
2019-02-20T15:31:34.295Z,7.57
2019-02-20T15:34:04.949Z,7.60
2019-02-20T15:36:34.679Z,7.40
2019-02-20T15:39:05.371Z,7.20
2019-02-20T15:41:34.716Z,6.70
2019-02-20T15:44:04.472Z,8.47
2019-02-20T15:46:33.817Z,6.77
2019-02-20T15:49:03.611Z,6.50
2019-02-20T15:51:33.333Z,6.37
2019-02-20T15:54:02.669Z,7.07
2019-02-20T15:56:32.024Z,6.40
2019-02-20T15:59:01.648Z,6.80
2019-02-20T16:01:31.007Z,6.67
2019-02-20T16:04:00.366Z,6.90
2019-02-20T16:06:29.895Z,7.20
2019-02-20T16:08:59.572Z,6.77
2019-02-20T16:11:29.253Z,7.60
2019-02-20T16:13:58.567Z,7.40
2019-02-20T16:16:28.293Z,8.10
2019-02-20T16:18:57.972Z,6.80
2019-02-20T16:21:27.491Z,6.83
2019-02-20T16:23:57.093Z,6.80
2019-02-20T16:26:26.417Z,7.33
2019-02-20T16:28:56.005Z,6.73
2019-02-20T16:31:25.337Z,7.50
2019-02-20T16:33:54.785Z,7.23
2019-02-20T16:36:24.689Z,7.00
2019-02-20T16:39:13.522Z,8.47
2019-02-20T16:41:43.584Z,7.73
2019-02-20T16:44:13.320Z,7.80
2019-02-20T16:46:43.050Z,7.80
2019-02-20T16:49:12.404Z,7.67
2019-02-20T16:51:42.041Z,7.50
2019-02-20T16:54:11.459Z,7.20
2019-02-20T16:56:40.795Z,6.90
2019-02-20T16:59:10.145Z,7.80
2019-02-20T17:01:39.770Z,7.10
2019-02-20T17:04:09.447Z,7.70
2019-02-20T17:06:38.852Z,7.10
2019-02-20T17:09:08.254Z,6.70
2019-02-20T17:11:37.598Z,7.13
2019-02-20T17:14:06.939Z,7.20
2019-02-20T17:16:36.523Z,7.30
2019-02-20T17:19:05.936Z,7.10
2019-02-20T17:21:35.325Z,7.37
2019-02-20T17:24:04.984Z,6.97
2019-02-20T17:26:41.159Z,7.30
2019-02-20T17:29:10.745Z,7.40
2019-02-20T17:31:40.710Z,7.80
2019-02-20T17:34:10.097Z,8.00
2019-02-20T17:36:39.424Z,6.97
2019-02-20T17:39:09.016Z,8.17
2019-02-20T17:41:38.344Z,7.67
2019-02-20T17:44:07.673Z,8.03
2019-02-20T17:46:37.276Z,7.57
2019-02-20T17:49:06.595Z,8.57
2019-02-20T17:51:36.177Z,8.37
2019-02-20T17:54:05.486Z,8.67
2019-02-20T17:56:35.114Z,8.57
2019-02-20T17:59:04.703Z,8.57
2019-02-20T18:01:37.055Z,8.50
2019-02-20T18:04:06.411Z,8.33
2019-02-20T18:06:35.770Z,8.70
2019-02-20T18:09:05.570Z,9.40
2019-02-20T18:11:35.315Z,9.00
2019-02-20T18:14:04.892Z,9.90
2019-02-20T18:16:34.539Z,9.47
2019-02-20T18:19:03.907Z,9.63
2019-02-20T18:21:33.266Z,8.67
2019-02-20T18:24:02.608Z,8.60
2019-02-20T18:26:31.951Z,9.13
2019-02-20T18:29:01.313Z,9.37
2019-02-20T18:31:30.964Z,10.30
2019-02-20T18:34:00.328Z,10.33
2019-02-20T18:36:29.961Z,10.20
2019-02-20T18:38:59.567Z,10.57
2019-02-20T18:41:28.945Z,10.30
2019-02-20T18:43:58.239Z,10.87
2019-02-20T18:46:27.564Z,9.80
2019-02-20T18:48:56.886Z,10.13
2019-02-20T18:51:26.502Z,11.30
2019-02-20T18:53:55.841Z,9.77
2019-02-20T18:56:25.423Z,10.13
2019-02-20T18:58:55.014Z,10.40
2019-02-20T19:01:24.826Z,12.90
2019-02-20T19:03:56.647Z,13.17
2019-02-20T19:06:25.776Z,12.50
2019-02-20T19:08:56.913Z,12.37
2019-02-20T19:11:46.200Z,11.47
2019-02-20T19:14:20.757Z,11.97
2019-02-20T19:16:57.526Z,12.27
2019-02-20T19:19:46.242Z,13.73
2019-02-20T19:22:37.843Z,11.93
2019-02-20T19:25:37.378Z,12.27
2019-02-20T19:28:29.675Z,12.23
2019-02-20T19:31:32.001Z,12.60
2019-02-20T19:34:20.976Z,13.60
2019-02-20T19:37:15.549Z,13.33
2019-02-20T19:40:11.046Z,13.97
2019-02-20T19:42:48.558Z,12.83
2019-02-20T19:45:32.027Z,12.63
2019-02-20T19:48:21.446Z,12.87
2019-02-20T19:51:21.829Z,12.80
2019-02-20T19:54:10.356Z,13.13
2019-02-20T19:56:50.350Z,13.17
2019-02-20T19:59:48.562Z,13.70
2019-02-20T20:02:58.996Z,13.67
2019-02-20T20:06:00.405Z,14.23
2019-02-20T20:08:52.306Z,14.07
2019-02-20T20:11:32.430Z,13.97
2019-02-20T20:14:33.224Z,15.10
2019-02-20T20:17:19.343Z,14.87
2019-02-20T20:20:10.089Z,15.40
2019-02-20T20:23:23.124Z,15.13
2019-02-20T20:26:22.624Z,15.50
2019-02-20T20:29:16.193Z,15.43
2019-02-20T20:32:08.242Z,16.03
2019-02-20T20:34:57.304Z,15.70
2019-02-20T20:37:45.899Z,16.97
2019-02-20T20:40:22.679Z,17.07
2019-02-20T20:43:02.804Z,16.40
2019-02-20T20:45:51.207Z,17.23
2019-02-20T20:48:45.166Z,17.17
2019-02-20T20:51:22.376Z,16.53
2019-02-20T20:54:08.760Z,17.20
2019-02-20T20:57:26.005Z,17.60
2019-02-20T21:00:15.551Z,16.53
2019-02-20T21:02:50.098Z,16.40
2019-02-20T21:05:51.515Z,16.13
2019-02-20T21:08:26.460Z,16.00
2019-02-20T21:11:40.211Z,16.50
2019-02-20T21:14:35.615Z,15.80
2019-02-20T21:17:44.162Z,16.67
2019-02-20T21:20:27.605Z,16.87
2019-02-20T21:23:13.839Z,15.63
2019-02-20T21:26:13.378Z,15.70
2019-02-20T21:29:02.651Z,15.87
2019-02-20T21:31:40.095Z,16.27
2019-02-20T21:34:23.127Z,15.63
2019-02-20T21:37:09.140Z,16.67
2019-02-20T21:39:49.417Z,16.97
2019-02-20T21:42:32.576Z,17.07
2019-02-20T21:45:09.894Z,15.33
2019-02-20T21:48:01.943Z,16.63
2019-02-20T21:50:51.166Z,16.50
2019-02-20T21:53:59.253Z,16.27
2019-02-20T21:56:38.513Z,16.80
2019-02-20T21:59:21.363Z,19.53
2019-02-20T22:02:07.325Z,16.53
2019-02-20T22:04:47.739Z,16.87
2019-02-20T22:07:40.914Z,15.83
2019-02-20T22:10:36.342Z,16.63
2019-02-20T22:13:42.921Z,17.13
2019-02-20T22:16:52.516Z,16.70
2019-02-20T22:19:48.978Z,16.77
2019-02-20T22:22:54.913Z,17.17
2019-02-20T22:25:43.746Z,17.03
2019-02-20T22:28:21.098Z,16.33
2019-02-20T22:31:00.915Z,17.37
2019-02-20T22:33:40.821Z,17.00
2019-02-20T22:36:35.905Z,16.73
2019-02-20T22:39:30.509Z,16.73
2019-02-20T22:42:18.893Z,16.87
2019-02-20T22:45:37.840Z,16.73
2019-02-20T22:48:29.709Z,16.30
2019-02-20T22:51:39.558Z,16.33
2019-02-20T22:54:29.913Z,16.97
2019-02-20T22:57:09.643Z,17.13
2019-02-20T23:00:06.648Z,16.00
2019-02-20T23:03:06.103Z,16.13
2019-02-20T23:06:11.556Z,15.57
2019-02-20T23:09:03.829Z,16.07
2019-02-20T23:11:50.909Z,15.43
2019-02-20T23:14:27.690Z,16.43
2019-02-20T23:16:57.098Z,16.23
2019-02-20T23:19:26.427Z,16.63
2019-02-20T23:21:55.756Z,16.60
2019-02-20T23:24:25.371Z,16.67
2019-02-20T23:26:55.324Z,17.77
2019-02-20T23:29:24.653Z,16.97
2019-02-20T23:31:54.159Z,16.97
2019-02-20T23:34:23.490Z,18.27
2019-02-20T23:36:54.051Z,17.90
2019-02-20T23:39:23.630Z,18.97
2019-02-20T23:41:52.953Z,18.37
2019-02-20T23:44:22.267Z,18.17
2019-02-20T23:46:51.712Z,20.17
2019-02-20T23:49:21.082Z,18.03
2019-02-20T23:51:50.410Z,18.33
2019-02-20T23:54:19.800Z,19.47
2019-02-20T23:56:49.160Z,19.80
2019-02-20T23:59:18.759Z,19.70
